Terminal Aerodrome Forecast
Issued by NWS

Home | Current Version | Previous Version | Text Only | Print | Product List | Glossary On
Versions: 1 2 3 4 5 6 7 8 9 10 11 12 13 14 15
006
FTUS42 KTAE 190531
TAFABY
TAF
KABY 190531Z 1906/2006 20008KT P6SM FEW018 FEW080
     FM190700 24010G15KT 6SM SHRA BKN025
     FM190800 33012G20KT P6SM SCT030
     FM192300 32007KT P6SM SKC=

USA.gov is the U.S. government's official web portal to all federal, state and local government web resources and services.